Time;durP1;ratioP1;P1;durP2;ratioP2;P2;SDS_P1;SDS_P2;PMS_P1;PMS_P2;Temp;Humidity;BMP_temperature;BMP_pressure;BME280_temperature;BME280_humidity;BME280_pressure;Samples;Min_cycle;Max_cycle;Signal;HPM_P1;HPM_P2
2022/10/28 00:01:14;;;;;;;18.37;9.63;;;;;;;14.55;100.00;101620.00;5018839;28;20052;-89
2022/10/28 00:03:42;;;;;;;15.90;9.47;;;;;;;14.47;100.00;101621.06;5020079;28;20108;-89
2022/10/28 00:06:10;;;;;;;17.30;9.63;;;;;;;14.48;100.00;101620.03;5022125;28;20429;-91
2022/10/28 00:08:36;;;;;;;17.77;9.80;;;;;;;14.59;100.00;101619.34;5022245;28;20038;-90
2022/10/28 00:11:23;;;;;;;18.43;10.67;;;;;;;14.55;100.00;101620.84;5022727;28;20048;-90
2022/10/28 00:13:49;;;;;;;18.13;9.93;;;;;;;14.52;100.00;101621.25;5022404;28;20033;-89
2022/10/28 00:16:17;;;;;;;18.63;10.33;;;;;;;14.58;100.00;101620.41;5022875;28;20038;-91
2022/10/28 00:18:43;;;;;;;21.07;9.83;;;;;;;14.53;100.00;101618.31;5022141;28;20056;-90
2022/10/28 00:21:12;;;;;;;20.30;9.97;;;;;;;14.52;100.00;101613.94;5022010;28;20041;-92
2022/10/28 00:23:37;;;;;;;18.53;9.90;;;;;;;14.61;100.00;101622.69;5023005;28;20430;-91
2022/10/28 00:26:12;;;;;;;18.37;9.53;;;;;;;14.56;100.00;101611.59;5021772;28;20052;-93
2022/10/28 00:28:52;;;;;;;17.17;10.03;;;;;;;14.50;100.00;101602.41;5022711;28;20026;-90
2022/10/28 00:31:19;;;;;;;17.17;9.83;;;;;;;14.55;100.00;101614.53;5021462;28;20464;-91
2022/10/28 00:33:45;;;;;;;16.93;9.97;;;;;;;14.60;100.00;101604.63;5021644;28;20547;-90
2022/10/28 00:36:16;;;;;;;18.30;9.73;;;;;;;14.65;100.00;101615.75;5022040;28;20044;-90
2022/10/28 00:38:43;;;;;;;17.70;9.33;;;;;;;14.62;100.00;101609.88;5022381;28;20036;-91
2022/10/28 00:41:10;;;;;;;16.57;9.70;;;;;;;14.60;100.00;101615.53;5022136;28;20033;-92
2022/10/28 00:43:44;;;;;;;18.47;10.17;;;;;;;14.61;100.00;101614.50;5021979;28;20515;-90
2022/10/28 00:46:17;;;;;;;18.10;10.13;;;;;;;14.58;100.00;101604.03;4998033;28;20033;-92
2022/10/28 00:48:46;;;;;;;18.33;10.03;;;;;;;14.60;100.00;101609.25;5002720;28;20078;-91
2022/10/28 00:51:13;;;;;;;21.57;9.90;;;;;;;14.58;100.00;101601.31;5020491;28;20047;-92
2022/10/28 00:53:39;;;;;;;18.63;10.70;;;;;;;14.55;100.00;101599.03;5021645;28;20094;-92
2022/10/28 00:56:07;;;;;;;16.33;9.33;;;;;;;14.54;100.00;101602.81;5020791;28;20029;-90
2022/10/28 00:58:33;;;;;;;19.37;10.40;;;;;;;14.49;100.00;101592.53;5035595;28;20045;-92
2022/10/28 01:01:32;;;;;;;23.40;10.57;;;;;;;14.55;100.00;101592.72;5019135;28;20037;-90
2022/10/28 01:03:59;;;;;;;20.17;10.53;;;;;;;14.50;100.00;101590.66;5004178;28;20033;-92
2022/10/28 01:06:26;;;;;;;18.17;10.27;;;;;;;14.48;100.00;101582.72;5021132;28;20041;-91
2022/10/28 01:08:52;;;;;;;19.70;10.20;;;;;;;14.51;100.00;101575.97;5020326;28;20488;-92
2022/10/28 01:11:33;;;;;;;14.60;9.77;;;;;;;14.49;100.00;101578.91;5020993;28;20044;-91
2022/10/28 01:14:21;;;;;;;17.30;9.57;;;;;;;14.47;100.00;101569.28;5021359;28;20044;-92
2022/10/28 01:17:18;;;;;;;19.10;10.93;;;;;;;14.46;100.00;101567.63;5019965;28;20498;-91
2022/10/28 01:20:11;;;;;;;22.27;11.10;;;;;;;14.48;100.00;101560.03;5020813;28;20044;-90
2022/10/28 01:22:59;;;;;;;19.30;10.37;;;;;;;14.42;100.00;101555.50;5021294;28;21441;-89
2022/10/28 01:25:43;;;;;;;21.33;10.77;;;;;;;14.42;100.00;101566.41;5022701;28;20131;-91
2022/10/28 01:31:16;;;;;;;21.17;11.23;;;;;;;14.42;100.00;101567.22;5021132;28;20168;-91
2022/10/28 01:33:45;;;;;;;19.50;10.87;;;;;;;14.43;100.00;101565.31;5035244;28;20532;-92
2022/10/28 01:36:25;;;;;;;24.60;11.53;;;;;;;14.42;100.00;101558.22;5036820;28;20123;-93
2022/10/28 01:38:59;;;;;;;19.00;11.30;;;;;;;14.38;100.00;101557.81;5021133;28;20069;-90
2022/10/28 01:41:27;;;;;;;18.37;10.70;;;;;;;14.41;100.00;101564.72;5020577;28;20029;-90
2022/10/28 01:44:13;;;;;;;20.23;11.07;;;;;;;14.37;100.00;101560.75;5037170;28;20054;-93
2022/10/28 01:46:46;;;;;;;20.67;10.83;;;;;;;14.39;100.00;101556.75;5020914;28;21346;-92
2022/10/28 01:49:41;;;;;;;19.10;10.63;;;;;;;14.37;100.00;101555.31;5020126;28;20163;-91
2022/10/28 01:52:11;;;;;;;20.85;10.70;;;;;;;14.34;100.00;101557.41;4997544;28;20176;-91
2022/10/28 01:54:41;;;;;;;19.53;10.63;;;;;;;14.35;100.00;101547.34;5021286;28;20029;-92
2022/10/28 01:57:07;;;;;;;19.33;10.50;;;;;;;14.34;100.00;101557.41;5019317;28;20077;-91
2022/10/28 01:59:34;;;;;;;18.43;10.37;;;;;;;14.26;100.00;101556.84;5036631;28;20033;-90
2022/10/28 02:01:59;;;;;;;19.13;10.70;;;;;;;14.25;100.00;101558.75;5020754;28;21328;-91
2022/10/28 02:04:25;;;;;;;19.70;10.70;;;;;;;14.22;100.00;101545.53;5020997;28;20055;-91
2022/10/28 02:06:55;;;;;;;18.87;10.67;;;;;;;14.23;100.00;101546.38;5020527;28;20046;-89
2022/10/28 02:09:42;;;;;;;20.53;10.53;;;;;;;14.15;100.00;101553.75;5001911;28;20477;-90
2022/10/28 02:12:27;;;;;;;19.67;11.27;;;;;;;14.10;100.00;101550.00;5035410;28;20041;-90
2022/10/28 02:15:22;;;;;;;18.65;9.80;;;;;;;14.11;100.00;101554.41;5020124;28;21585;-90
2022/10/28 02:17:53;;;;;;;;;;;;;;;14.17;100.00;101553.50;5019627;28;20049;-90
2022/10/28 02:20:43;;;;;;;21.87;10.73;;;;;;;13.95;100.00;101553.00;5020813;28;20020;-89
2022/10/28 02:23:11;;;;;;;17.40;10.50;;;;;;;13.86;100.00;101560.63;5019748;28;20037;-91
2022/10/28 02:25:59;;;;;;;19.53;11.20;;;;;;;13.84;100.00;101549.94;5020668;28;20412;-92
2022/10/28 02:28:54;;;;;;;18.23;10.30;;;;;;;13.71;100.00;101560.88;5019081;28;20606;-89
2022/10/28 02:31:25;;;;;;;17.67;10.10;;;;;;;13.76;100.00;101552.91;5014716;28;20044;-92
2022/10/28 02:33:57;;;;;;;17.87;10.37;;;;;;;13.78;100.00;101549.97;5020293;28;20067;-90
2022/10/28 02:36:24;;;;;;;19.53;10.50;;;;;;;13.79;100.00;101552.47;5019546;28;20041;-91
2022/10/28 02:38:54;;;;;;;21.87;10.57;;;;;;;13.80;100.00;101550.56;5019252;28;20124;-88
2022/10/28 02:41:34;;;;;;;17.63;10.00;;;;;;;13.76;100.00;101550.19;5034930;28;20466;-90
2022/10/28 02:44:05;;;;;;;19.03;10.30;;;;;;;13.75;100.00;101545.78;5019983;28;20109;-91
2022/10/28 02:46:34;;;;;;;19.30;10.23;;;;;;;13.76;100.00;101539.28;4995146;28;20493;-90
2022/10/28 02:49:09;;;;;;;20.47;11.13;;;;;;;13.72;100.00;101535.31;5019306;28;20029;-90
2022/10/28 02:51:39;;;;;;;19.77;10.43;;;;;;;13.65;100.00;101539.94;5019688;28;20452;-91
2022/10/28 02:54:14;;;;;;;19.50;10.33;;;;;;;13.75;100.00;101539.47;5019182;28;20599;-91
2022/10/28 02:56:50;;;;;;;17.27;9.83;;;;;;;13.58;100.00;101534.53;5019367;28;20044;-91
2022/10/28 02:59:15;;;;;;;19.33;10.13;;;;;;;13.68;100.00;101539.50;5018619;28;20043;-92
2022/10/28 03:01:41;;;;;;;20.87;10.43;;;;;;;13.70;100.00;101531.16;5019511;28;21484;-91
2022/10/28 03:04:06;;;;;;;19.37;10.27;;;;;;;13.66;100.00;101537.00;5018817;28;21286;-92
2022/10/28 03:06:32;;;;;;;18.77;9.70;;;;;;;13.64;100.00;101535.53;5020226;28;20088;-93
2022/10/28 03:08:57;;;;;;;20.23;9.97;;;;;;;13.70;100.00;101536.59;5018537;28;20057;-90
2022/10/28 03:11:22;;;;;;;19.63;10.40;;;;;;;13.62;100.00;101533.03;5019224;28;20052;-90
2022/10/28 03:13:48;;;;;;;17.17;10.13;;;;;;;13.47;100.00;101529.75;5019543;28;20048;-92
2022/10/28 03:16:13;;;;;;;21.83;10.07;;;;;;;13.70;100.00;101531.16;5034840;28;21490;-91
2022/10/28 03:18:38;;;;;;;16.67;10.50;;;;;;;13.44;100.00;101538.34;5019029;28;20500;-89
2022/10/28 03:21:04;;;;;;;16.53;9.80;;;;;;;13.37;100.00;101527.47;5019866;28;20045;-90
2022/10/28 03:23:29;;;;;;;17.70;10.07;;;;;;;13.51;100.00;101533.72;5034364;28;20033;-89
2022/10/28 03:25:55;;;;;;;17.23;9.53;;;;;;;13.34;100.00;101528.72;5019575;28;20046;-90
2022/10/28 03:28:20;;;;;;;16.33;9.40;;;;;;;13.42;100.00;101514.06;5001861;28;20084;-91
2022/10/28 03:30:45;;;;;;;19.33;9.80;;;;;;;13.50;100.00;101526.59;5019332;28;20513;-90
2022/10/28 03:33:11;;;;;;;20.17;9.43;;;;;;;13.54;100.00;101522.38;5019509;28;20110;-91
2022/10/28 03:35:36;;;;;;;18.43;9.27;;;;;;;13.54;100.00;101519.66;5019401;28;20060;-90
2022/10/28 03:38:02;;;;;;;18.60;9.50;;;;;;;13.51;100.00;101525.56;5019907;28;20041;-92
2022/10/28 03:40:27;;;;;;;20.03;8.30;;;;;;;13.59;100.00;101521.75;5018647;28;20049;-92
2022/10/28 03:42:53;;;;;;;17.50;8.70;;;;;;;13.67;100.00;101527.78;5018442;28;20137;-92
2022/10/28 03:45:18;;;;;;;18.03;8.57;;;;;;;13.73;100.00;101525.25;5019163;28;20493;-90
2022/10/28 03:47:43;;;;;;;18.00;7.50;;;;;;;13.79;100.00;101521.66;5019684;28;20037;-91
2022/10/28 03:50:09;;;;;;;19.67;8.33;;;;;;;13.78;100.00;101520.00;5018935;28;20059;-92
2022/10/28 03:52:34;;;;;;;16.50;7.60;;;;;;;13.84;100.00;101522.69;5019488;28;20038;-90
2022/10/28 03:54:59;;;;;;;15.67;7.27;;;;;;;13.88;100.00;101533.16;5018965;28;20088;-90
2022/10/28 03:57:29;;;;;;;16.00;7.23;;;;;;;13.88;100.00;101517.63;5018160;28;20037;-90
2022/10/28 03:59:54;;;;;;;17.50;7.20;;;;;;;13.97;100.00;101521.78;5019232;28;20033;-91
2022/10/28 04:02:20;;;;;;;17.17;7.27;;;;;;;13.99;100.00;101519.69;5018621;28;20126;-91
2022/10/28 04:04:45;;;;;;;19.97;7.60;;;;;;;13.92;100.00;101521.59;5018731;28;20175;-92
2022/10/28 04:07:10;;;;;;;16.20;7.10;;;;;;;13.88;100.00;101512.19;5018470;28;20052;-91
2022/10/28 04:09:36;;;;;;;16.97;7.30;;;;;;;13.92;100.00;101513.41;5018404;28;20049;-91
2022/10/28 04:12:01;;;;;;;16.47;7.20;;;;;;;13.96;100.00;101520.09;5001119;28;20040;-91
2022/10/28 04:14:26;;;;;;;17.27;7.20;;;;;;;14.00;100.00;101524.06;5018265;28;20039;-89
2022/10/28 04:16:52;;;;;;;16.67;7.00;;;;;;;14.07;100.00;101525.94;5019607;28;20068;-90
2022/10/28 04:19:55;;;;;;;15.67;6.90;;;;;;;14.07;100.00;101520.47;5018416;28;20059;-92
2022/10/28 04:22:20;;;;;;;17.93;7.30;;;;;;;14.13;100.00;101514.13;5018166;28;20215;-93
2022/10/28 04:24:45;;;;;;;16.23;7.33;;;;;;;14.08;100.00;101524.88;5017753;28;20623;-91
2022/10/28 04:27:11;;;;;;;16.43;6.97;;;;;;;14.12;100.00;101529.66;5017651;28;20041;-92
2022/10/28 04:29:36;;;;;;;18.80;7.47;;;;;;;14.17;100.00;101529.00;5018030;28;20729;-91
2022/10/28 04:32:02;;;;;;;16.67;7.23;;;;;;;14.15;100.00;101531.13;5018442;28;20041;-90
2022/10/28 04:34:27;;;;;;;19.13;7.63;;;;;;;14.10;100.00;101522.75;5001143;28;20048;-92
2022/10/28 04:36:53;;;;;;;19.47;6.90;;;;;;;14.12;100.00;101523.38;5017929;28;20107;-91
2022/10/28 04:39:18;;;;;;;18.80;7.47;;;;;;;14.13;100.00;101525.03;5018462;28;20037;-92
2022/10/28 04:41:43;;;;;;;17.90;6.87;;;;;;;14.06;100.00;101518.78;5018766;28;20055;-92
2022/10/28 04:44:09;;;;;;;18.17;7.07;;;;;;;14.06;100.00;101524.25;5017520;28;20624;-91
2022/10/28 04:46:55;;;;;;;16.27;6.60;;;;;;;14.08;100.00;101522.97;5018366;28;20079;-92
2022/10/28 04:49:20;;;;;;;19.47;7.27;;;;;;;14.04;100.00;101526.38;5018260;28;20513;-90
2022/10/28 04:51:46;;;;;;;12.93;6.47;;;;;;;14.04;100.00;101527.19;5019336;28;20160;-90
2022/10/28 04:54:11;;;;;;;19.87;7.43;;;;;;;13.96;100.00;101522.81;5022048;28;20040;-90
2022/10/28 04:56:36;;;;;;;15.47;6.80;;;;;;;13.98;100.00;101523.47;5021832;28;20604;-91
2022/10/28 04:59:01;;;;;;;18.57;7.40;;;;;;;13.94;100.00;101530.41;5036832;28;20141;-91
2022/10/28 05:01:27;;;;;;;17.00;6.77;;;;;;;13.89;100.00;101522.03;5021963;28;20117;-90
2022/10/28 05:03:52;;;;;;;15.67;6.83;;;;;;;13.91;100.00;101529.97;5036112;28;20042;-90
2022/10/28 05:06:18;;;;;;;14.37;6.37;;;;;;;13.89;100.00;101524.75;5021682;28;20088;-91
2022/10/28 05:08:43;;;;;;;16.27;7.07;;;;;;;13.81;100.00;101525.00;5021795;28;20037;-91
2022/10/28 05:11:08;;;;;;;16.50;6.80;;;;;;;13.79;100.00;101521.66;5021259;28;20039;-92
2022/10/28 05:13:34;;;;;;;14.63;7.00;;;;;;;13.65;100.00;101521.75;5022544;28;20038;-90
2022/10/28 05:15:59;;;;;;;14.63;7.17;;;;;;;13.62;100.00;101513.16;5020665;28;20627;-89
2022/10/28 05:18:24;;;;;;;13.30;6.57;;;;;;;13.62;100.00;101518.59;5003113;28;20144;-91
2022/10/28 05:20:53;;;;;;;16.43;6.70;;;;;;;13.57;100.00;101518.41;5021598;28;20025;-89
2022/10/28 05:23:22;;;;;;;15.60;7.43;;;;;;;13.33;100.00;101518.03;5020450;28;20041;-90
2022/10/28 05:25:48;;;;;;;14.53;6.83;;;;;;;13.58;100.00;101512.75;5021088;28;20393;-90
2022/10/28 05:28:13;;;;;;;18.87;7.13;;;;;;;13.61;100.00;101512.34;5021026;28;20040;-89
2022/10/28 05:30:39;;;;;;;13.33;6.80;;;;;;;13.63;100.00;101512.94;5021577;28;20041;-91
2022/10/28 05:33:04;;;;;;;16.73;7.00;;;;;;;13.62;100.00;101508.53;5020631;28;20096;-91
2022/10/28 05:35:30;;;;;;;17.73;7.30;;;;;;;13.71;100.00;101500.97;5020934;28;20124;-91
2022/10/28 05:37:56;;;;;;;17.87;7.10;;;;;;;13.70;100.00;101503.91;5020395;28;20041;-91
2022/10/28 05:40:21;;;;;;;16.43;6.90;;;;;;;13.58;100.00;101499.13;5020755;28;20032;-91
2022/10/28 05:42:47;;;;;;;16.50;6.90;;;;;;;13.65;100.00;101499.94;5022333;28;20045;-90
2022/10/28 05:45:12;;;;;;;19.97;7.80;;;;;;;13.71;100.00;101506.41;5020733;28;21354;-91
2022/10/28 05:47:45;;;;;;;18.87;7.47;;;;;;;13.73;100.00;101509.75;5020252;28;20041;-92
2022/10/28 05:50:11;;;;;;;16.13;6.93;;;;;;;13.77;100.00;101508.25;5020704;28;20474;-91
2022/10/28 05:52:36;;;;;;;17.30;7.17;;;;;;;13.81;100.00;101512.22;5020828;28;20167;-91
2022/10/28 05:55:02;;;;;;;18.93;7.07;;;;;;;13.81;100.00;101512.22;5020012;28;20033;-90
2022/10/28 05:57:27;;;;;;;19.37;7.30;;;;;;;13.91;100.00;101514.50;5020724;28;20084;-89
2022/10/28 05:59:53;;;;;;;20.00;7.13;;;;;;;13.95;100.00;101513.00;5021429;28;20456;-90
2022/10/28 06:02:18;;;;;;;17.53;7.30;;;;;;;13.91;100.00;101510.91;5019738;28;20047;-90
2022/10/28 06:04:43;;;;;;;17.90;6.70;;;;;;;13.98;100.00;101507.13;5020624;28;20445;-93
2022/10/28 06:07:08;;;;;;;15.23;7.30;;;;;;;13.97;100.00;101510.06;5020547;28;20508;-92
2022/10/28 06:09:34;;;;;;;18.40;7.50;;;;;;;14.02;100.00;101513.78;5021100;28;20401;-91
2022/10/28 06:11:59;;;;;;;14.47;7.17;;;;;;;14.06;100.00;101518.78;5020477;28;20437;-91
2022/10/28 06:14:25;;;;;;;18.10;7.07;;;;;;;14.04;100.00;101510.84;5021456;28;20045;-90
2022/10/28 06:17:09;;;;;;;13.77;6.33;;;;;;;14.13;100.00;101525.03;5019384;28;20037;-93
2022/10/28 06:19:34;;;;;;;15.27;6.53;;;;;;;14.09;100.00;101513.75;4993244;28;20046;-91
2022/10/28 06:22:00;;;;;;;16.83;6.70;;;;;;;14.15;100.00;101517.50;4991861;28;20405;-90
2022/10/28 06:24:25;;;;;;;16.30;7.10;;;;;;;14.20;100.00;101528.56;4992238;28;20516;-90
2022/10/28 06:26:50;;;;;;;15.10;6.77;;;;;;;14.24;100.00;101528.94;4991370;28;20042;-86
2022/10/28 06:29:16;;;;;;;16.77;6.67;;;;;;;14.30;100.00;101526.19;4990978;28;20597;-88
2022/10/28 06:31:41;;;;;;;19.27;6.90;;;;;;;14.29;100.00;101524.53;4991755;28;20034;-88
2022/10/28 06:34:11;;;;;;;19.07;7.40;;;;;;;14.30;100.00;101520.72;4990529;28;20281;-86
2022/10/28 06:36:37;;;;;;;18.40;7.07;;;;;;;14.30;100.00;101526.19;5004085;28;20044;-88
2022/10/28 06:39:03;;;;;;;16.13;7.30;;;;;;;14.31;100.00;101518.88;5011661;28;20694;-86
2022/10/28 06:41:28;;;;;;;16.83;6.53;;;;;;;14.32;100.00;101518.63;5009879;28;20053;-87
2022/10/28 06:43:54;;;;;;;19.80;7.33;;;;;;;14.37;100.00;101522.59;5009927;28;20041;-89
2022/10/28 06:46:19;;;;;;;18.47;6.57;;;;;;;14.29;100.00;101507.31;5026086;28;20054;-89
2022/10/28 06:48:44;;;;;;;15.37;7.30;;;;;;;14.40;100.00;101527.59;5026219;28;20038;-89
2022/10/28 06:51:10;;;;;;;16.97;7.10;;;;;;;14.41;100.00;101526.53;5010751;28;20079;-88
2022/10/28 06:53:35;;;;;;;18.33;7.23;;;;;;;14.37;100.00;101517.13;5010511;28;20585;-90
2022/10/28 06:56:01;;;;;;;15.97;6.90;;;;;;;14.40;100.00;101514.81;5009798;28;20758;-87
2022/10/28 06:58:26;;;;;;;14.97;6.90;;;;;;;14.41;100.00;101518.38;5010672;28;20045;-88
2022/10/28 07:01:10;;;;;;;17.17;7.33;;;;;;;14.45;100.00;101522.31;5010889;28;20103;-89
2022/10/28 07:03:35;;;;;;;16.27;7.00;;;;;;;14.46;100.00;101515.81;5009755;28;21007;-88
2022/10/28 07:06:02;;;;;;;15.47;6.77;;;;;;;14.50;100.00;101526.06;5010034;28;20699;-88
2022/10/28 07:08:28;;;;;;;17.00;7.20;;;;;;;14.57;100.00;101526.00;5010320;28;20042;-87
2022/10/28 07:10:55;;;;;;;17.73;7.17;;;;;;;14.51;100.00;101510.53;5008438;28;20035;-87
2022/10/28 07:13:20;;;;;;;16.90;7.27;;;;;;;14.62;100.00;101528.03;5010000;28;20037;-88
2022/10/28 07:15:53;;;;;;;15.90;7.03;;;;;;;14.63;100.00;101529.75;5009494;28;20088;-89
2022/10/28 07:18:19;;;;;;;17.33;6.90;;;;;;;14.66;100.00;101529.31;5009833;28;20099;-86
2022/10/28 07:20:45;;;;;;;18.83;6.87;;;;;;;14.72;100.00;101524.88;5009987;28;20038;-87
2022/10/28 07:23:10;;;;;;;15.87;6.33;;;;;;;14.76;100.00;101521.47;4995976;28;20486;-90
2022/10/28 07:25:36;;;;;;;18.50;7.03;;;;;;;14.82;100.00;101525.19;5024865;28;20048;-87
2022/10/28 07:28:01;;;;;;;16.80;6.70;;;;;;;14.87;100.00;101522.63;5009956;28;20049;-88
2022/10/28 07:30:27;;;;;;;17.83;7.10;;;;;;;14.99;100.00;101539.13;5009648;28;20127;-88
2022/10/28 07:32:52;;;;;;;14.93;6.47;;;;;;;15.09;100.00;101538.59;5010427;28;20037;-89
2022/10/28 07:35:18;;;;;;;19.50;7.10;;;;;;;15.21;100.00;101542.25;5008853;28;21483;-89
2022/10/28 07:37:44;;;;;;;17.37;6.60;;;;;;;15.29;100.00;101543.84;5010281;28;20124;-89
2022/10/28 07:40:10;;;;;;;15.93;6.40;;;;;;;15.40;100.00;101539.53;5009842;28;20044;-86
2022/10/28 07:42:35;;;;;;;20.30;7.20;;;;;;;15.51;100.00;101538.78;5010051;28;20042;-87
2022/10/28 07:45:01;;;;;;;16.27;6.87;;;;;;;15.60;99.82;101542.00;5009758;28;20062;-88
2022/10/28 07:47:26;;;;;;;16.13;7.13;;;;;;;15.74;98.90;101538.06;5010483;28;20153;-89
2022/10/28 07:49:53;;;;;;;18.03;6.90;;;;;;;15.86;98.39;101535.44;5010188;28;20388;-89
2022/10/28 07:52:19;;;;;;;18.60;7.63;;;;;;;16.03;97.45;101539.19;5009342;28;20029;-87
2022/10/28 07:54:44;;;;;;;14.57;7.07;;;;;;;16.15;96.77;101541.97;5008627;28;20045;-87
2022/10/28 07:57:09;;;;;;;17.37;7.10;;;;;;;16.24;96.05;101542.47;4995827;28;20128;-87
2022/10/28 07:59:35;;;;;;;20.20;7.27;;;;;;;16.36;96.13;101540.63;5009195;28;20029;-89
2022/10/28 08:02:00;;;;;;;18.53;6.67;;;;;;;16.50;95.09;101534.94;5009565;28;20192;-88
2022/10/28 08:04:29;;;;;;;14.73;6.60;;;;;;;16.64;94.97;101533.63;5009783;28;20065;-86
2022/10/28 08:06:54;;;;;;;17.43;7.10;;;;;;;16.77;95.25;101526.28;5009138;28;20039;-87
2022/10/28 08:09:19;;;;;;;17.40;6.30;;;;;;;16.91;93.72;101530.50;5009192;28;20041;-87
2022/10/28 08:11:45;;;;;;;18.40;6.60;;;;;;;17.13;93.58;101533.47;5009079;28;20499;-86
2022/10/28 08:14:10;;;;;;;14.03;6.47;;;;;;;17.28;92.05;101543.91;5021702;28;20136;-86
2022/10/28 08:16:35;;;;;;;17.80;6.50;;;;;;;17.50;91.46;101535.06;5006700;28;20529;-86
2022/10/28 08:19:01;;;;;;;17.90;6.00;;;;;;;17.70;89.78;101535.50;5008338;28;20638;-86
2022/10/28 08:21:26;;;;;;;17.70;6.50;;;;;;;17.99;90.14;101532.84;4997520;28;20030;-85
2022/10/28 08:24:10;;;;;;;19.20;6.60;;;;;;;18.18;89.01;101532.59;5016157;28;20045;-85
2022/10/28 08:26:35;;;;;;;20.75;6.55;;;;;;;18.12;87.55;101548.13;5017808;28;20069;-84
2022/10/28 08:29:01;;;;;;;19.00;6.68;;;;;;;18.10;86.71;101544.81;5001171;28;20576;-83
2022/10/28 08:31:26;;;;;;;17.20;6.83;;;;;;;18.11;87.39;101556.63;5019478;28;20025;-83
2022/10/28 08:33:51;;;;;;;13.30;6.30;;;;;;;18.11;86.63;101551.13;5020000;28;20041;-84
2022/10/28 08:36:17;;;;;;;16.70;6.97;;;;;;;18.08;86.69;101551.63;5019028;28;20401;-84
2022/10/28 08:38:46;;;;;;;20.58;7.43;;;;;;;18.01;88.05;101551.78;5019305;28;20116;-83
2022/10/28 08:41:23;;;;;;;17.45;7.32;;;;;;;17.96;88.33;101548.94;5017268;28;20318;-85
2022/10/28 08:43:59;;;;;;;18.20;7.68;;;;;;;17.88;87.98;101547.38;5018709;28;20045;-83
2022/10/28 08:46:37;;;;;;;18.93;6.80;;;;;;;17.96;88.09;101559.88;5019520;28;20037;-87
2022/10/28 08:49:09;;;;;;;17.40;6.77;;;;;;;18.02;87.81;101551.53;5019019;28;20122;-85
2022/10/28 08:51:46;;;;;;;18.17;7.20;;;;;;;18.05;88.01;101547.47;5018947;28;20543;-85
2022/10/28 08:54:38;;;;;;;17.80;7.05;;;;;;;18.20;87.00;101546.91;5000254;28;20748;-84
2022/10/28 08:57:08;;;;;;;18.67;7.70;;;;;;;18.40;86.50;101535.50;5018066;28;20603;-86
2022/10/28 08:59:37;;;;;;;17.75;7.53;;;;;;;18.58;85.95;101539.91;5019742;28;20500;-85
2022/10/28 09:02:22;;;;;;;16.88;7.30;;;;;;;18.86;85.27;101540.88;5018871;28;20563;-83
2022/10/28 09:04:59;;;;;;;18.77;6.72;;;;;;;18.90;84.27;101544.81;5018564;28;20029;-84
2022/10/28 09:07:24;;;;;;;18.58;7.35;;;;;;;18.93;84.22;101543.50;5018980;28;20493;-84
2022/10/28 09:09:52;;;;;;;18.58;7.30;;;;;;;18.96;84.20;101548.47;5018397;28;20035;-83
2022/10/28 09:12:28;;;;;;;19.27;7.10;;;;;;;18.93;84.83;101554.47;5020543;28;20044;-84
2022/10/28 09:15:20;;;;;;;18.67;7.18;;;;;;;19.01;84.73;101562.28;5021373;28;20775;-85
2022/10/28 09:17:57;;;;;;;16.08;7.00;;;;;;;18.85;84.16;101561.22;5012711;28;20171;-85
2022/10/28 09:20:22;;;;;;;18.33;7.47;;;;;;;18.89;85.49;101549.50;5021861;28;20037;-83
2022/10/28 09:23:25;;;;;;;21.42;7.70;;;;;;;18.92;85.03;101559.16;5021319;28;20095;-84
2022/10/28 09:26:12;;;;;;;18.88;7.78;;;;;;;18.95;84.95;101558.63;5021504;28;20033;-84
2022/10/28 09:29:11;;;;;;;22.13;8.05;;;;;;;19.22;86.26;101564.25;5020888;28;20046;-83
2022/10/28 09:32:05;;;;;;;17.10;7.13;;;;;;;19.53;84.69;101563.88;4936928;28;20047;-85
2022/10/28 09:34:51;;;;;;;19.75;7.68;;;;;;;19.71;83.39;101560.78;5002794;28;20053;-84
2022/10/28 09:37:21;;;;;;;18.95;7.18;;;;;;;19.83;82.28;101565.38;5015641;28;20715;-86
2022/10/28 09:39:54;;;;;;;17.65;6.88;;;;;;;19.82;81.78;101569.22;5019804;28;20528;-84
2022/10/28 09:42:37;;;;;;;15.70;6.88;;;;;;;19.83;81.51;101562.63;5021534;28;21236;-83
2022/10/28 09:45:34;;;;;;;16.92;6.72;;;;;;;19.88;82.37;101574.50;4986341;28;20501;-85
2022/10/28 09:48:24;;;;;;;20.58;7.05;;;;;;;19.90;83.51;101577.81;5015966;28;20049;-83
2022/10/28 09:50:53;;;;;;;20.80;6.18;;;;;;;19.92;81.57;101565.75;5021632;28;20124;-85
2022/10/28 09:53:43;;;;;;;20.20;6.47;;;;;;;20.05;81.92;101566.16;5021931;28;20063;-83
2022/10/28 09:56:09;;;;;;;17.48;5.82;;;;;;;20.30;79.40;101567.53;5019119;28;20030;-85
2022/10/28 09:58:35;;;;;;;19.83;5.80;;;;;;;20.60;78.88;101576.34;5021212;28;20037;-83
2022/10/28 10:01:03;;;;;;;15.48;5.03;;;;;;;20.71;76.32;101570.69;5020492;28;20041;-82
2022/10/28 10:03:29;;;;;;;17.52;5.13;;;;;;;20.89;75.52;101572.22;5021296;28;20064;-85
2022/10/28 10:05:59;;;;;;;16.35;5.70;;;;;;;20.99;75.34;101587.16;5020015;28;20039;-84
2022/10/28 10:08:25;;;;;;;17.67;5.70;;;;;;;21.06;74.04;101577.56;5021156;28;20045;-84
2022/10/28 10:10:53;;;;;;;17.60;5.28;;;;;;;21.23;73.25;101566.38;5021163;28;20043;-83
2022/10/28 10:13:26;;;;;;;15.88;5.30;;;;;;;21.27;72.18;101566.69;5021357;28;20041;-84
2022/10/28 10:15:56;;;;;;;14.27;4.90;;;;;;;21.28;72.48;101562.00;4999031;28;20038;-83
2022/10/28 10:18:25;;;;;;;17.90;5.05;;;;;;;21.25;71.65;101566.94;5018082;28;20321;-85
2022/10/28 10:20:59;;;;;;;14.77;4.70;;;;;;;21.46;71.69;101574.50;5032557;28;20049;-84
2022/10/28 10:23:32;;;;;;;14.00;4.65;;;;;;;21.53;70.44;101570.44;5017935;28;20044;-85
2022/10/28 10:26:05;;;;;;;13.90;4.80;;;;;;;21.70;70.53;101580.44;5017501;28;20033;-84
2022/10/28 10:28:32;;;;;;;13.20;4.43;;;;;;;21.64;69.15;101571.31;5018414;28;20079;-85
2022/10/28 10:31:01;;;;;;;15.93;5.00;;;;;;;21.86;69.72;101565.59;5031738;28;20093;-85
2022/10/28 10:33:33;;;;;;;15.95;4.88;;;;;;;21.90;69.59;101563.16;5017944;28;20478;-85
2022/10/28 10:36:04;;;;;;;19.35;4.72;;;;;;;21.77;67.15;101558.94;5008898;28;20064;-86
2022/10/28 10:38:30;;;;;;;15.00;4.75;;;;;;;21.88;66.78;101559.81;5032415;28;20460;-87
2022/10/28 10:40:56;;;;;;;12.55;4.10;;;;;;;21.85;66.48;101571.41;5017523;28;20048;-82
2022/10/28 10:43:35;;;;;;;14.85;4.45;;;;;;;22.02;65.97;101562.91;5017920;28;20464;-85
2022/10/28 10:46:04;;;;;;;15.85;4.40;;;;;;;21.88;66.17;101557.06;5016631;28;20167;-87
2022/10/28 10:48:35;;;;;;;16.17;4.93;;;;;;;21.91;66.88;101554.59;5019763;28;20038;-88
2022/10/28 10:51:25;;;;;;;14.35;4.30;;;;;;;21.97;66.94;101557.38;5019940;28;20029;-85
2022/10/28 10:53:59;;;;;;;15.70;4.60;;;;;;;22.07;66.83;101549.94;5020044;28;20509;-85
2022/10/28 10:56:32;;;;;;;18.10;4.57;;;;;;;22.14;65.54;101522.09;5000979;28;20032;-85
2022/10/28 10:59:04;;;;;;;18.83;4.97;;;;;;;22.35;66.45;101530.44;5019887;28;20472;-87
2022/10/28 11:01:38;;;;;;;17.48;4.72;;;;;;;22.36;65.81;101529.34;5019697;28;20048;-85
2022/10/28 11:04:06;;;;;;;18.63;5.30;;;;;;;22.37;64.20;101530.97;5020085;28;20039;-83
2022/10/28 11:06:35;;;;;;;16.58;4.70;;;;;;;22.48;63.61;101556.66;5019499;28;20180;-84
2022/10/28 11:09:16;;;;;;;13.75;4.40;;;;;;;22.49;63.04;101542.56;5019595;28;20056;-85
2022/10/28 11:11:42;;;;;;;16.92;5.13;;;;;;;22.58;63.39;101548.38;5018482;28;20032;-85
2022/10/28 11:14:07;;;;;;;13.40;4.90;;;;;;;22.58;62.63;101545.63;5019045;28;20037;-85
2022/10/28 11:16:45;;;;;;;18.52;5.57;;;;;;;22.66;62.92;101542.31;5019773;28;20059;-85
2022/10/28 11:19:41;;;;;;;16.30;5.38;;;;;;;22.76;61.98;101541.47;5019650;28;20159;-88
2022/10/28 11:22:34;;;;;;;13.55;4.15;;;;;;;22.61;61.79;101531.25;5017127;28;20049;-86
2022/10/28 11:25:09;;;;;;;15.27;4.72;;;;;;;22.48;62.93;101531.81;5018985;28;20627;-87
2022/10/28 11:27:56;;;;;;;15.75;4.60;;;;;;;22.47;63.21;101525.47;5018737;28;20047;-86